New Baltimore, New York
Current Conditions -  °F | °C
As of 4:51 PM on Thursday 27 Nov 2014 (Local Time) from KALB Reporting Station
Light Snow Light Snow  
Wind Chill: 30°   Ceiling: 3200
Heat Index: 30°   Visibility: 4mi
Dew Point: 26°   Wind: 0mph
Humidity: 85%   Direction: NA
Pressure: 30.03"   Gusts: NA
Location:  42.45°N, 73.79°W
Report Text: KALB 272151Z 00000KT 4SM -SN BR FEW008 BKN032 OVC060 M01/M03 A3003 RMK AO2 SLP171 P0000 T10111033
Loading
Personal Weather Stations






























Interactive Weather Map New forecast layout! Learn more

10-Day Weather Forecast

Advertisements
Track Severe Weather on mobile